createdAt,value
2022-11-26T07:56:10.844Z,22.08
2022-11-26T07:58:41.895Z,18.25
2022-11-26T08:01:15.330Z,15.77
2022-11-26T08:03:48.271Z,13.63
2022-11-26T08:06:19.907Z,6.38
2022-11-26T08:08:49.837Z,6.03
2022-11-26T08:11:23.231Z,5.32
2022-11-26T08:13:55.486Z,5.20
2022-11-26T08:16:28.580Z,5.38
2022-11-26T08:19:00.853Z,5.38
2022-11-26T08:21:30.635Z,5.75
2022-11-26T08:24:00.401Z,5.70
2022-11-26T08:26:36.152Z,5.47
2022-11-26T08:29:07.505Z,5.93
2022-11-26T08:31:45.293Z,7.15
2022-11-26T08:34:17.663Z,6.13
2022-11-26T08:36:47.600Z,5.90
2022-11-26T08:39:19.556Z,6.13
2022-11-26T08:41:52.662Z,5.95
2022-11-26T08:44:23.110Z,6.70
2022-11-26T08:46:52.847Z,5.78
2022-11-26T08:49:22.656Z,6.50
2022-11-26T08:51:52.503Z,5.90
2022-11-26T08:54:22.244Z,5.93
2022-11-26T08:56:53.822Z,9.15
2022-11-26T08:59:24.394Z,6.85
2022-11-26T09:01:54.235Z,6.03
2022-11-26T09:04:24.103Z,5.50
2022-11-26T09:06:53.878Z,5.03
2022-11-26T09:09:23.641Z,4.70
2022-11-26T09:11:59.496Z,5.07
2022-11-26T09:14:31.701Z,5.10
2022-11-26T09:17:01.865Z,6.07
2022-11-26T09:19:32.085Z,5.35
2022-11-26T09:22:02.633Z,4.88
2022-11-26T09:24:32.600Z,4.80
2022-11-26T09:27:07.821Z,5.93
2022-11-26T09:29:38.193Z,5.28
2022-11-26T09:32:24.513Z,5.25
2022-11-26T09:34:55.828Z,6.22
2022-11-26T09:37:25.634Z,5.90
2022-11-26T09:39:55.621Z,6.18
2022-11-26T09:42:39.747Z,5.82
2022-11-26T09:45:19.026Z,6.28
2022-11-26T09:47:53.504Z,5.80
2022-11-26T09:50:31.795Z,5.72
2022-11-26T09:53:06.089Z,4.88
2022-11-26T09:55:38.892Z,4.97
2022-11-26T09:58:25.316Z,5.30
2022-11-26T10:00:59.382Z,5.53
2022-11-26T10:03:34.561Z,5.45
2022-11-26T10:06:08.618Z,5.00
2022-11-26T10:09:04.208Z,5.18
2022-11-26T10:11:41.172Z,5.03
2022-11-26T10:14:28.670Z,4.68
2022-11-26T10:17:12.374Z,4.55
2022-11-26T10:19:54.542Z,4.80
2022-11-26T10:22:29.894Z,5.00
2022-11-26T10:25:03.163Z,5.18
2022-11-26T10:27:36.054Z,4.60
2022-11-26T10:30:18.380Z,5.00
2022-11-26T10:32:50.539Z,4.78
2022-11-26T10:35:22.841Z,4.20
2022-11-26T10:37:53.329Z,4.72
2022-11-26T10:40:25.812Z,4.68
2022-11-26T10:43:05.297Z,4.50
2022-11-26T10:45:41.566Z,4.38
2022-11-26T10:48:26.613Z,3.42
2022-11-26T10:51:06.262Z,4.65
2022-11-26T10:53:51.873Z,4.07
2022-11-26T10:56:25.042Z,5.03
2022-11-26T10:59:05.078Z,3.97
2022-11-26T11:01:39.624Z,4.68
2022-11-26T11:04:24.974Z,4.57
2022-11-26T11:06:55.088Z,4.45
2022-11-26T11:09:31.865Z,4.40
2022-11-26T11:12:20.796Z,4.40
2022-11-26T11:14:52.436Z,3.92
2022-11-26T11:17:32.126Z,5.20
2022-11-26T11:20:22.124Z,4.15
2022-11-26T11:22:58.990Z,4.35
2022-11-26T11:25:31.704Z,3.50
2022-11-26T11:28:11.975Z,3.38
2022-11-26T11:30:43.369Z,3.17
2022-11-26T11:33:21.612Z,3.50
2022-11-26T11:36:03.480Z,3.25
2022-11-26T11:38:35.224Z,4.07
2022-11-26T11:41:14.942Z,3.25
2022-11-26T11:43:45.067Z,3.28
2022-11-26T11:46:42.834Z,3.13
2022-11-26T11:49:24.489Z,3.67
2022-11-26T11:52:08.162Z,3.80
2022-11-26T11:54:54.531Z,3.92
2022-11-26T11:57:40.486Z,3.35
2022-11-26T12:00:16.236Z,3.72
2022-11-26T12:03:17.001Z,3.65
2022-11-26T12:06:20.332Z,3.83
2022-11-26T12:09:03.803Z,2.92
2022-11-26T12:11:42.506Z,3.42
2022-11-26T12:14:17.580Z,3.58
2022-11-26T12:16:54.322Z,3.33
2022-11-26T12:19:35.664Z,2.83
2022-11-26T12:22:16.441Z,3.22
2022-11-26T12:24:50.318Z,3.47
2022-11-26T12:27:29.003Z,2.78
2022-11-26T12:30:04.992Z,3.15
2022-11-26T12:32:40.768Z,2.92
2022-11-26T12:35:16.055Z,3.22
2022-11-26T12:37:51.723Z,3.47
2022-11-26T12:40:32.936Z,3.08
2022-11-26T12:43:11.521Z,3.25
2022-11-26T12:45:52.653Z,2.83
2022-11-26T12:48:35.832Z,2.60
2022-11-26T12:51:18.325Z,3.40
2022-11-26T12:53:58.702Z,3.55
2022-11-26T12:56:34.001Z,3.85
2022-11-26T12:59:10.867Z,3.03
2022-11-26T13:01:42.066Z,3.80
2022-11-26T13:04:36.580Z,3.30
2022-11-26T13:07:21.496Z,3.28
2022-11-26T13:10:04.025Z,2.63
2022-11-26T13:12:46.767Z,3.45
2022-11-26T13:15:25.994Z,3.42
2022-11-26T13:17:58.420Z,2.85
2022-11-26T13:20:49.133Z,3.65
2022-11-26T13:23:38.229Z,3.10
2022-11-26T13:26:23.674Z,3.42
2022-11-26T13:29:29.032Z,2.75
2022-11-26T13:32:14.806Z,2.60
2022-11-26T13:35:01.864Z,3.60
2022-11-26T13:37:47.931Z,3.45
2022-11-26T13:40:53.503Z,3.38
2022-11-26T13:43:58.617Z,3.63
2022-11-26T13:46:32.058Z,3.30
2022-11-26T13:49:07.818Z,3.67
2022-11-26T13:51:43.402Z,3.45
2022-11-26T13:54:18.530Z,3.63
2022-11-26T13:56:49.347Z,3.15
2022-11-26T13:59:27.974Z,2.70
2022-11-26T14:01:58.478Z,2.65
2022-11-26T14:04:56.095Z,3.35
2022-11-26T14:07:27.266Z,2.92
2022-11-26T14:10:00.130Z,3.95
2022-11-26T14:13:04.150Z,3.67
2022-11-26T14:15:57.387Z,4.05
2022-11-26T14:19:00.612Z,4.07
2022-11-26T14:21:31.610Z,4.43
2022-11-26T14:24:01.906Z,3.92
2022-11-26T14:26:37.389Z,3.88
2022-11-26T14:29:17.540Z,4.30
2022-11-26T14:31:55.210Z,5.03
2022-11-26T14:34:32.735Z,6.88
2022-11-26T14:37:03.409Z,8.05
2022-11-26T14:39:33.213Z,7.95
2022-11-26T14:42:06.360Z,6.53
2022-11-26T14:44:36.668Z,7.72
2022-11-26T14:47:17.509Z,15.35
2022-11-26T14:49:51.079Z,10.05
2022-11-26T14:52:25.016Z,8.32
2022-11-26T14:54:57.396Z,7.63
2022-11-26T14:57:32.353Z,8.15
2022-11-26T15:00:09.017Z,10.18
2022-11-26T15:02:42.522Z,13.70
2022-11-26T15:05:16.451Z,11.82
2022-11-26T15:07:47.023Z,9.20
2022-11-26T15:10:22.102Z,12.57
2022-11-26T15:12:53.861Z,8.88
2022-11-26T15:15:25.569Z,7.53
2022-11-26T15:18:00.087Z,7.38
2022-11-26T15:20:30.534Z,9.75
2022-11-26T15:23:03.719Z,11.90
2022-11-26T15:25:37.153Z,18.27
2022-11-26T15:28:17.409Z,21.92
2022-11-26T15:30:56.980Z,22.15
2022-11-26T15:33:29.727Z,18.80
2022-11-26T15:36:00.364Z,18.55
2022-11-26T15:38:32.441Z,19.90
2022-11-26T15:41:07.927Z,35.25
2022-11-26T15:43:44.093Z,26.33
2022-11-26T15:46:19.150Z,20.10
2022-11-26T15:48:54.487Z,21.92
2022-11-26T15:51:34.971Z,20.75
2022-11-26T15:54:21.660Z,23.45
2022-11-26T15:56:55.089Z,24.33
2022-11-26T15:59:27.149Z,23.88
2022-11-26T16:01:57.137Z,25.48
2022-11-26T16:04:45.873Z,25.00
2022-11-26T16:07:17.891Z,22.92
2022-11-26T16:09:49.408Z,21.77
2022-11-26T16:12:29.215Z,27.20
2022-11-26T16:15:19.752Z,62.20
2022-11-26T16:17:51.106Z,84.13
2022-11-26T16:20:25.510Z,89.00
2022-11-26T16:22:59.141Z,73.65
2022-11-26T16:25:31.666Z,55.65
2022-11-26T16:28:06.620Z,51.90
2022-11-26T16:30:36.869Z,33.30
2022-11-26T16:33:07.253Z,33.95
2022-11-26T16:35:46.895Z,24.23
2022-11-26T16:38:20.889Z,37.65
2022-11-26T16:40:51.151Z,41.90
2022-11-26T16:43:21.805Z,77.28
2022-11-26T16:45:55.414Z,66.85
2022-11-26T16:48:26.796Z,41.05
2022-11-26T16:50:58.434Z,36.40
2022-11-26T16:53:28.294Z,41.25
2022-11-26T16:55:58.838Z,42.78
2022-11-26T16:58:30.572Z,42.45
2022-11-26T17:01:00.822Z,43.83
2022-11-26T17:03:33.163Z,43.70
2022-11-26T17:06:12.368Z,69.32
2022-11-26T17:08:47.924Z,54.17
2022-11-26T17:11:19.621Z,79.28
2022-11-26T17:13:49.864Z,71.82
2022-11-26T17:16:21.993Z,52.50
2022-11-26T17:18:51.994Z,56.25
2022-11-26T17:21:23.211Z,51.65
2022-11-26T17:23:53.083Z,49.38
2022-11-26T17:26:25.043Z,49.83
2022-11-26T17:28:55.023Z,47.35
2022-11-26T17:31:24.897Z,46.15
2022-11-26T17:33:54.729Z,52.42
2022-11-26T17:36:25.951Z,50.45
2022-11-26T17:38:55.886Z,49.08
2022-11-26T17:41:25.804Z,50.30
2022-11-26T17:43:55.731Z,58.92
2022-11-26T17:46:25.897Z,56.40
2022-11-26T17:48:59.779Z,59.42
2022-11-26T17:51:31.287Z,53.42
2022-11-26T17:54:01.155Z,51.00
2022-11-26T17:56:31.316Z,50.20
2022-11-26T17:59:02.641Z,42.00
2022-11-26T18:01:32.448Z,44.88
2022-11-26T18:04:02.393Z,42.38
2022-11-26T18:06:47.418Z,38.00
2022-11-26T18:09:17.508Z,34.20
2022-11-26T18:11:50.364Z,33.15
2022-11-26T18:14:20.941Z,32.00
2022-11-26T18:16:51.280Z,28.58
2022-11-26T18:19:23.049Z,30.00
2022-11-26T18:21:54.177Z,28.40
2022-11-26T18:24:24.176Z,31.17
2022-11-26T18:26:56.400Z,28.55
2022-11-26T18:29:27.645Z,29.10
2022-11-26T18:31:57.670Z,30.10
2022-11-26T18:34:27.472Z,29.15
2022-11-26T18:36:58.658Z,29.77
2022-11-26T18:39:28.445Z,29.00
2022-11-26T18:42:29.498Z,30.25
2022-11-26T18:44:48.304Z,30.45
2022-11-26T18:47:18.097Z,26.90
2022-11-26T18:49:48.235Z,27.27
2022-11-26T18:52:19.531Z,26.17
2022-11-26T18:54:49.455Z,24.88
2022-11-26T18:57:19.332Z,29.05
2022-11-26T18:59:50.619Z,29.27
2022-11-26T19:02:20.533Z,28.55
2022-11-26T19:04:50.700Z,30.98
2022-11-26T19:07:21.854Z,30.48
2022-11-26T19:09:52.243Z,29.10
2022-11-26T19:12:22.970Z,31.92
2022-11-26T19:14:53.237Z,29.90
2022-11-26T19:17:23.829Z,29.40
2022-11-26T19:19:53.723Z,30.50
2022-11-26T19:22:25.129Z,30.30
2022-11-26T19:24:54.948Z,30.40
2022-11-26T19:27:24.854Z,30.63
2022-11-26T19:29:54.674Z,28.80
2022-11-26T19:32:25.092Z,31.10
2022-11-26T19:34:55.454Z,31.95
2022-11-26T19:37:26.720Z,29.63
2022-11-26T19:39:56.872Z,34.42
2022-11-26T19:42:26.689Z,41.72
2022-11-26T19:44:56.930Z,43.08
2022-11-26T19:47:27.038Z,47.17
2022-11-26T19:49:57.048Z,41.65
2022-11-26T19:52:28.279Z,49.45
2022-11-26T19:54:58.436Z,47.63
2022-11-26T19:57:28.258Z,42.65
2022-11-26T19:59:58.263Z,39.58
2022-11-26T20:02:28.201Z,36.78
2022-11-26T20:04:58.152Z,30.05
2022-11-26T20:07:29.480Z,26.95
2022-11-26T20:09:59.499Z,26.55
2022-11-26T20:12:29.918Z,31.45
2022-11-26T20:15:00.981Z,29.08
2022-11-26T20:17:31.340Z,31.77
2022-11-26T20:20:01.124Z,33.20
2022-11-26T20:22:34.396Z,30.75
2022-11-26T20:25:04.886Z,30.27
2022-11-26T20:27:34.681Z,27.80
2022-11-26T20:30:04.905Z,25.88
2022-11-26T20:32:34.745Z,27.52
2022-11-26T20:35:04.917Z,27.83
2022-11-26T20:37:36.150Z,20.75
2022-11-26T20:40:07.441Z,21.23
2022-11-26T20:42:38.487Z,18.30
2022-11-26T20:45:08.667Z,16.85
2022-11-26T20:47:38.569Z,13.50
2022-11-26T20:50:10.795Z,12.63
2022-11-26T20:52:42.136Z,11.73
2022-11-26T20:55:12.109Z,12.10
2022-11-26T20:57:41.930Z,11.02
2022-11-26T21:00:16.913Z,10.98
2022-11-26T21:02:47.540Z,10.50
2022-11-26T21:05:18.354Z,10.50
2022-11-26T21:07:51.312Z,11.55
2022-11-26T21:10:25.144Z,13.90
2022-11-26T21:12:56.354Z,11.82
2022-11-26T21:15:26.674Z,10.38
2022-11-26T21:17:56.753Z,9.80
2022-11-26T21:20:27.512Z,12.32
2022-11-26T21:23:00.640Z,11.07
2022-11-26T21:25:30.528Z,11.80
2022-11-26T21:28:00.337Z,11.73
2022-11-26T21:30:30.252Z,12.23
2022-11-26T21:33:03.211Z,11.95
2022-11-26T21:35:36.144Z,12.13
2022-11-26T21:38:07.876Z,12.82
2022-11-26T21:40:37.912Z,11.98
2022-11-26T21:43:07.960Z,13.98
2022-11-26T22:26:57.705Z,18.92
2022-11-26T22:29:28.094Z,18.45
2022-11-26T22:31:57.799Z,16.63
2022-11-26T22:34:29.162Z,18.02
2022-11-26T22:36:59.020Z,18.13
2022-11-26T22:39:30.588Z,16.15
2022-11-26T22:42:01.873Z,18.08
2022-11-26T22:44:32.247Z,16.08
2022-11-26T22:47:02.035Z,16.50
2022-11-26T22:49:31.901Z,17.27
2022-11-26T22:52:01.716Z,16.38
2022-11-26T22:54:31.470Z,18.70
2022-11-26T22:57:02.617Z,17.35
2022-11-26T22:59:32.557Z,17.02
2022-11-26T23:02:02.231Z,17.63
2022-11-26T23:04:32.056Z,16.67
2022-11-26T23:07:01.892Z,19.80
2022-11-26T23:09:31.854Z,17.27
2022-11-26T23:12:03.856Z,21.13
2022-11-26T23:14:34.103Z,18.67
2022-11-26T23:17:04.446Z,18.13
2022-11-26T23:19:34.504Z,21.20
2022-11-26T23:22:04.745Z,19.45
2022-11-26T23:24:34.553Z,17.52
2022-11-26T23:27:05.686Z,18.33
2022-11-26T23:29:35.971Z,17.00
2022-11-26T23:32:05.800Z,16.13
2022-11-26T23:34:35.569Z,16.42
2022-11-26T23:37:05.293Z,16.25
2022-11-26T23:39:35.041Z,15.18
2022-11-26T23:42:06.544Z,15.40
2022-11-26T23:44:36.298Z,13.57
2022-11-26T23:47:06.165Z,14.23
2022-11-26T23:49:35.995Z,13.38
2022-11-26T23:52:06.175Z,14.60
2022-11-26T23:54:36.119Z,13.00
2022-11-26T23:57:11.828Z,13.82
2022-11-26T23:59:44.625Z,13.73
